Green Oak Township, Michigan
Current Conditions -  °F | °C
As of 6:55 PM on Friday 19 Dec 2014 (Local Time) from KOZW Reporting Station
Clear Clear  
Wind Chill: 23°   Ceiling: Unl
Heat Index: 23°   Visibility: 10mi
Dew Point: 19°   Wind: 3mph
Humidity: 86%   Direction: 240°WSW
Pressure: 30.3"   Gusts: NA
Location:  42.5333°N, 83.7735°W
Report Text: KOZW 192355Z AUTO 24003KT 10SM CLR M05/M07 A3030 RMK AO2 T10521072 11018 21052
Loading
Personal Weather Stations






























Interactive Weather Map New forecast layout! Learn more

10-Day Weather Forecast

Advertisements
Track Severe Weather on mobile